Details for Air Canada at CYUL




Go Back


Latest METAR
Local Time

CYUL 180600Z 01011G17KT 15SM OVC013 18/15 A2985 RMK SF8 SLP110 DENSITY ALT 600FT
18/08/2018, 02:29:31

Description
Results
Air Canada Logo
Number of Pilots based at CYUL
0 Pilots Based here
Number of Air Canada Flights Departed from CYUL
3 Flights Departed
Number of Air Canada Flights Arrived at CYUL
2 Flights Arrived
Number of Air Canada Schedules Departing from CYUL
66 Schedules
Number of Air Canada Schedules Arriving at CYUL
65 Schedules
Number of Air Canada Schedules Departing from CYUL availible today
45 Schedules Today
Number of Air Canada Schedules Arriving at CYUL availible today
45 Schedules Today
Average Landing Rate at CYUL
-204 fpm
Air Canada Average Landing Rate at CYUL
-80 fpm
Total Fuel Purchased at CYUL by Air Canada
9,700.53 kgs / 21,385.79 lbs

Pilots Based at CYUL


Pilot ID
Pilot Name
Pilot Rank
No. of Flights
No. of Flying Hours
There are no pilots assigned to this hub!   Will you be the first?
Content